Time;durP1;ratioP1;P1;durP2;ratioP2;P2;SDS_P1;SDS_P2;PMS_P1;PMS_P2;Temp;Humidity;BMP_temperature;BMP_pressure;BME280_temperature;BME280_humidity;BME280_pressure;Samples;Min_cycle;Max_cycle;Signal;HPM_P1;HPM_P2
2020/12/29 00:00:59;;;;;;;40.10;24.67;;;2.80;99.90;;;;;;5066431;28;20660;-41
2020/12/29 00:03:25;;;;;;;42.95;24.98;;;2.80;99.90;;;;;;5045238;28;20024;-41
2020/12/29 00:05:51;;;;;;;44.38;24.15;;;2.80;99.90;;;;;;5058619;28;20394;-41
2020/12/29 00:08:17;;;;;;;42.72;23.58;;;2.80;99.90;;;;;;5047800;28;20025;-42
2020/12/29 00:10:43;;;;;;;37.50;21.58;;;2.80;99.90;;;;;;5066570;28;20315;-43
2020/12/29 00:13:09;;;;;;;41.33;23.00;;;2.90;99.90;;;;;;5060251;28;20067;-41
2020/12/29 00:15:41;;;;;;;41.53;24.67;;;2.80;99.90;;;;;;5031048;28;20090;-42
2020/12/29 00:18:07;;;;;;;39.78;23.80;;;2.90;99.90;;;;;;5067339;28;20559;-45
2020/12/29 00:20:34;;;;;;;41.70;22.98;;;2.90;99.90;;;;;;5061933;28;20025;-42
2020/12/29 00:23:00;;;;;;;41.92;24.02;;;2.90;99.90;;;;;;5045683;28;20047;-42
2020/12/29 00:25:26;;;;;;;43.20;24.15;;;2.90;99.90;;;;;;5055602;28;20032;-43
2020/12/29 00:27:52;;;;;;;48.15;25.83;;;2.90;99.90;;;;;;5052329;28;20393;-42
2020/12/29 00:30:17;;;;;;;42.47;23.70;;;2.90;99.90;;;;;;5035403;28;20521;-41
2020/12/29 00:32:43;;;;;;;42.95;24.42;;;2.90;99.90;;;;;;5050484;28;20037;-42
2020/12/29 00:35:09;;;;;;;47.13;25.48;;;2.90;99.90;;;;;;5048605;28;20052;-41
2020/12/29 00:37:35;;;;;;;44.47;24.27;;;2.90;99.90;;;;;;5063399;28;20128;-42
2020/12/29 00:40:00;;;;;;;42.22;24.98;;;2.90;99.90;;;;;;5069692;28;20024;-42
2020/12/29 00:42:26;;;;;;;48.40;27.23;;;2.80;99.90;;;;;;5049800;28;20370;-42
2020/12/29 00:44:51;;;;;;;46.75;26.13;;;2.80;99.90;;;;;;5068673;28;20042;-42
2020/12/29 00:47:18;;;;;;;44.72;26.00;;;2.80;99.90;;;;;;5068329;28;20075;-41
2020/12/29 00:49:44;;;;;;;46.30;26.05;;;2.80;99.90;;;;;;5062528;28;20486;-42
2020/12/29 00:52:09;;;;;;;44.70;25.65;;;2.80;99.90;;;;;;5069098;28;20052;-41
2020/12/29 00:54:35;;;;;;;44.22;26.45;;;2.80;99.90;;;;;;5068708;28;20025;-42
2020/12/29 00:57:00;;;;;;;48.35;26.35;;;2.80;99.90;;;;;;5069654;28;20033;-42
2020/12/29 00:59:26;;;;;;;43.95;25.58;;;2.80;99.90;;;;;;5070390;28;20526;-42
2020/12/29 01:01:58;;;;;;;46.55;25.73;;;2.80;99.90;;;;;;5070449;28;20024;-41
2020/12/29 01:04:27;;;;;;;47.17;26.92;;;2.70;99.90;;;;;;5050626;28;20417;-42
2020/12/29 01:06:53;;;;;;;44.60;25.10;;;2.70;99.90;;;;;;5067133;28;20036;-42
2020/12/29 01:09:18;;;;;;;49.63;26.48;;;2.70;99.90;;;;;;5070876;28;20105;-41
2020/12/29 01:11:44;;;;;;;45.75;25.45;;;2.70;99.90;;;;;;5068289;28;20094;-42
2020/12/29 01:14:10;;;;;;;53.58;29.60;;;2.70;99.90;;;;;;5070010;28;20024;-41
2020/12/29 01:16:36;;;;;;;46.38;26.10;;;2.70;99.90;;;;;;5068495;28;20488;-42
2020/12/29 01:19:02;;;;;;;49.30;27.77;;;2.70;99.90;;;;;;5068218;28;20031;-41
2020/12/29 01:21:28;;;;;;;47.83;26.80;;;2.70;99.90;;;;;;5064928;28;20025;-41
2020/12/29 01:23:53;;;;;;;52.42;29.25;;;2.70;99.90;;;;;;5070317;28;20017;-42
2020/12/29 01:26:26;;;;;;;58.28;31.48;;;2.70;99.90;;;;;;5069209;28;20024;-41
2020/12/29 01:28:52;;;;;;;53.08;29.95;;;2.70;99.90;;;;;;5069642;28;20032;-41
2020/12/29 01:31:28;;;;;;;54.20;30.77;;;2.70;99.90;;;;;;5052159;28;20183;-42
2020/12/29 01:33:55;;;;;;;50.47;27.27;;;2.70;99.90;;;;;;5050153;28;20036;-40
2020/12/29 01:36:22;;;;;;;54.50;28.80;;;2.70;99.90;;;;;;5049617;28;20024;-41
2020/12/29 01:38:48;;;;;;;56.38;30.30;;;2.70;99.90;;;;;;5034698;28;20029;-41
2020/12/29 01:41:13;;;;;;;54.83;29.45;;;2.70;99.90;;;;;;5069507;28;20454;-42
2020/12/29 01:43:39;;;;;;;54.38;29.08;;;2.70;99.90;;;;;;5068331;28;20033;-41
2020/12/29 01:46:05;;;;;;;54.67;29.20;;;2.70;99.90;;;;;;5050545;28;20020;-41
2020/12/29 01:48:30;;;;;;;54.70;29.65;;;2.70;99.90;;;;;;5069228;28;20497;-41
2020/12/29 01:50:57;;;;;;;54.83;28.88;;;2.70;99.90;;;;;;5060164;28;20052;-42
2020/12/29 01:53:23;;;;;;;57.65;31.20;;;2.60;99.90;;;;;;5069501;28;20028;-42
2020/12/29 01:55:50;;;;;;;56.45;31.95;;;2.70;99.90;;;;;;5068808;28;20063;-41
2020/12/29 01:58:16;;;;;;;58.08;31.52;;;2.60;99.90;;;;;;5068986;28;20024;-41
2020/12/29 02:00:42;;;;;;;58.30;31.80;;;2.70;99.90;;;;;;5069184;28;20035;-41
2020/12/29 02:03:13;;;;;;;60.60;32.55;;;2.70;99.90;;;;;;5038987;28;20033;-41
2020/12/29 02:05:40;;;;;;;58.88;29.98;;;2.70;99.90;;;;;;5058556;28;20350;-42
2020/12/29 02:08:06;;;;;;;57.03;30.27;;;2.70;99.90;;;;;;5064400;28;20263;-41
2020/12/29 02:10:32;;;;;;;60.05;30.77;;;2.60;99.90;;;;;;5067235;28;20036;-41
2020/12/29 02:12:58;;;;;;;56.90;31.33;;;2.60;99.90;;;;;;5049805;28;20073;-41
2020/12/29 02:15:23;;;;;;;57.22;29.08;;;2.60;99.90;;;;;;5064419;28;20028;-41
2020/12/29 02:17:49;;;;;;;55.47;29.83;;;2.60;99.90;;;;;;5051528;28;20060;-41
2020/12/29 02:20:14;;;;;;;51.30;30.55;;;2.60;99.90;;;;;;5050042;28;20028;-41
2020/12/29 02:22:40;;;;;;;51.90;28.88;;;2.60;99.90;;;;;;5068948;28;20081;-40
2020/12/29 02:25:07;;;;;;;51.40;28.17;;;2.60;99.90;;;;;;5066885;28;20515;-41
2020/12/29 02:27:44;;;;;;;49.55;27.25;;;2.70;99.90;;;;;;5057419;28;20059;-40
2020/12/29 02:30:10;;;;;;;47.28;25.73;;;2.70;99.90;;;;;;5063321;28;20028;-41
2020/12/29 02:32:37;;;;;;;51.08;26.92;;;2.70;99.90;;;;;;5054233;28;20762;-41
2020/12/29 02:35:04;;;;;;;48.33;25.63;;;2.60;99.90;;;;;;5064740;28;20413;-41
2020/12/29 02:37:29;;;;;;;46.17;25.38;;;2.70;99.90;;;;;;5048977;28;20536;-41
2020/12/29 02:39:55;;;;;;;53.97;28.10;;;2.60;99.90;;;;;;5047424;28;20029;-41
2020/12/29 02:42:21;;;;;;;52.20;27.73;;;2.60;99.90;;;;;;5050922;28;20041;-41
2020/12/29 02:44:47;;;;;;;52.38;27.88;;;2.50;99.90;;;;;;5062464;28;20036;-41
2020/12/29 02:47:12;;;;;;;46.05;24.17;;;2.50;99.90;;;;;;5052662;28;20024;-40
2020/12/29 02:49:38;;;;;;;50.92;26.55;;;2.40;99.90;;;;;;5063134;28;20051;-41
2020/12/29 02:52:05;;;;;;;44.58;24.35;;;2.40;99.90;;;;;;5057185;28;20558;-41
2020/12/29 02:54:30;;;;;;;44.88;25.08;;;2.40;99.90;;;;;;5066655;28;20021;-41
2020/12/29 02:56:56;;;;;;;49.13;25.40;;;2.30;99.90;;;;;;5068117;28;20028;-41
2020/12/29 02:59:23;;;;;;;49.67;26.73;;;2.30;99.90;;;;;;5067648;28;20034;-42
2020/12/29 03:01:49;;;;;;;49.70;26.88;;;2.20;99.90;;;;;;5066610;28;20028;-41
2020/12/29 03:04:15;;;;;;;49.47;26.83;;;2.20;99.90;;;;;;5066553;28;20366;-41
2020/12/29 03:06:40;;;;;;;52.15;26.83;;;2.20;99.90;;;;;;5057840;28;20028;-41
2020/12/29 03:09:06;;;;;;;46.35;25.33;;;2.20;99.90;;;;;;5063887;28;20077;-42
2020/12/29 03:11:32;;;;;;;44.53;25.38;;;2.20;99.90;;;;;;5066453;28;20074;-41
2020/12/29 03:14:03;;;;;;;45.75;25.77;;;2.10;99.90;;;;;;5067391;28;20029;-41
2020/12/29 03:16:29;;;;;;;44.38;23.77;;;2.10;99.90;;;;;;5066359;28;20351;-42
2020/12/29 03:18:55;;;;;;;46.63;24.85;;;2.10;99.90;;;;;;5050009;28;20025;-40
2020/12/29 03:21:21;;;;;;;46.53;24.33;;;2.10;99.90;;;;;;5046665;28;20032;-40
2020/12/29 03:23:50;;;;;;;46.20;23.60;;;2.10;99.90;;;;;;5053358;28;20029;-41
2020/12/29 03:26:16;;;;;;;47.53;24.58;;;2.10;99.90;;;;;;5045731;28;20025;-40
2020/12/29 03:28:42;;;;;;;43.38;23.40;;;2.00;99.90;;;;;;5048153;28;20095;-41
2020/12/29 03:31:08;;;;;;;47.72;25.98;;;2.00;99.90;;;;;;5045924;28;20045;-41
2020/12/29 03:33:34;;;;;;;49.30;24.92;;;2.00;99.90;;;;;;5047533;28;20486;-40
2020/12/29 03:36:00;;;;;;;48.88;26.20;;;2.00;99.90;;;;;;5046774;28;20086;-41
2020/12/29 03:38:26;;;;;;;42.65;23.35;;;1.90;99.90;;;;;;5048122;28;20074;-40
2020/12/29 03:40:52;;;;;;;40.70;23.80;;;2.00;99.90;;;;;;5047695;28;20432;-40
2020/12/29 03:43:19;;;;;;;42.22;23.85;;;1.90;99.90;;;;;;5063425;28;20051;-41
2020/12/29 03:45:46;;;;;;;38.67;21.98;;;1.90;99.90;;;;;;5066670;28;20024;-41
2020/12/29 03:48:13;;;;;;;41.00;22.42;;;1.90;99.90;;;;;;5066443;28;20059;-41
2020/12/29 03:50:40;;;;;;;40.72;23.40;;;2.00;99.90;;;;;;5067632;28;20398;-40
2020/12/29 03:53:06;;;;;;;42.13;22.13;;;2.00;99.90;;;;;;5053022;28;20442;-41
2020/12/29 03:55:33;;;;;;;36.80;20.58;;;2.00;99.90;;;;;;5045818;28;20085;-42
2020/12/29 03:57:58;;;;;;;36.90;20.95;;;1.90;99.90;;;;;;5047002;28;20025;-44
2020/12/29 04:00:24;;;;;;;38.75;22.88;;;2.00;99.90;;;;;;5046767;28;20036;-42
2020/12/29 04:02:52;;;;;;;35.78;19.73;;;2.00;99.90;;;;;;5046160;28;20021;-41
2020/12/29 04:05:18;;;;;;;37.83;19.90;;;1.90;99.90;;;;;;5064409;28;20473;-42
2020/12/29 04:07:44;;;;;;;34.47;19.65;;;2.00;99.90;;;;;;5066615;28;20106;-42
2020/12/29 04:10:10;;;;;;;35.65;19.52;;;1.90;99.90;;;;;;5065250;28;20028;-44
2020/12/29 04:12:36;;;;;;;35.80;19.98;;;1.80;99.90;;;;;;5052398;28;20432;-41
2020/12/29 04:15:03;;;;;;;35.67;19.65;;;1.80;99.90;;;;;;5063742;28;20055;-42
2020/12/29 04:17:39;;;;;;;37.35;18.80;;;1.80;99.90;;;;;;5067728;28;20012;-41
2020/12/29 04:20:07;;;;;;;38.45;19.27;;;1.80;99.90;;;;;;5058178;28;20060;-42
2020/12/29 04:22:34;;;;;;;33.28;18.67;;;1.70;99.90;;;;;;5065298;28;20437;-42
2020/12/29 04:25:00;;;;;;;32.05;18.00;;;1.70;99.90;;;;;;5059406;28;20072;-41
2020/12/29 04:27:26;;;;;;;30.17;18.38;;;1.70;99.90;;;;;;5067125;28;20478;-41
2020/12/29 04:29:52;;;;;;;31.38;17.65;;;1.70;99.90;;;;;;5060207;28;20521;-41
2020/12/29 04:32:18;;;;;;;34.83;17.23;;;1.80;99.90;;;;;;5067112;28;20036;-41
2020/12/29 04:34:45;;;;;;;34.28;17.73;;;1.80;99.90;;;;;;5064264;28;20060;-41
2020/12/29 04:37:11;;;;;;;31.10;17.02;;;1.70;99.90;;;;;;5067169;28;20038;-41
2020/12/29 04:39:36;;;;;;;34.30;18.20;;;1.80;99.90;;;;;;5067588;28;20043;-41
2020/12/29 04:42:05;;;;;;;31.80;17.08;;;1.70;99.90;;;;;;5066798;28;20082;-41
2020/12/29 04:44:33;;;;;;;31.08;16.83;;;1.70;99.90;;;;;;5060796;28;20028;-41
2020/12/29 04:47:00;;;;;;;34.08;17.35;;;1.70;99.90;;;;;;5048821;28;20154;-42
2020/12/29 04:49:26;;;;;;;28.77;17.13;;;1.70;99.90;;;;;;5060143;28;20025;-42
2020/12/29 04:51:57;;;;;;;32.58;16.65;;;1.80;99.90;;;;;;5055076;28;20518;-41
2020/12/29 04:54:28;;;;;;;35.15;17.58;;;1.80;99.90;;;;;;5062924;28;20037;-41
2020/12/29 04:56:55;;;;;;;;;;;1.80;99.90;;;;;;5066951;28;20446;-41
2020/12/29 04:59:20;;;;;;;29.77;15.50;;;1.80;99.90;;;;;;5067173;28;19919;-40
2020/12/29 05:01:47;;;;;;;29.55;16.40;;;1.80;99.90;;;;;;5064517;28;20032;-41
2020/12/29 05:04:16;;;;;;;26.83;15.32;;;1.80;99.90;;;;;;5064751;28;20025;-40
2020/12/29 05:06:43;;;;;;;27.05;15.98;;;1.70;99.90;;;;;;5064472;28;20252;-40
2020/12/29 05:09:12;;;;;;;30.73;16.42;;;1.80;99.90;;;;;;5051135;28;20395;-41
2020/12/29 05:11:38;;;;;;;27.15;15.07;;;1.70;99.90;;;;;;5064081;28;20410;-40
2020/12/29 05:14:04;;;;;;;27.98;16.17;;;1.80;99.90;;;;;;5068514;28;20040;-41
2020/12/29 05:16:41;;;;;;;26.58;15.63;;;1.80;99.90;;;;;;5069514;28;20025;-40
2020/12/29 05:19:15;;;;;;;25.80;14.85;;;1.80;99.90;;;;;;5057609;28;20461;-41
2020/12/29 05:21:43;;;;;;;27.08;14.85;;;1.70;99.90;;;;;;5065088;28;20078;-41
2020/12/29 05:24:15;;;;;;;26.58;14.50;;;1.70;99.90;;;;;;5069445;28;20016;-41
2020/12/29 05:26:42;;;;;;;25.98;14.55;;;1.70;99.90;;;;;;5050075;28;20036;-41
2020/12/29 05:29:12;;;;;;;25.17;14.20;;;1.70;99.90;;;;;;5050333;28;20486;-41
2020/12/29 05:31:39;;;;;;;23.30;13.57;;;1.70;99.90;;;;;;5067322;28;20025;-41
2020/12/29 05:34:05;;;;;;;25.90;13.68;;;1.60;99.90;;;;;;5069404;28;20115;-41
2020/12/29 05:36:36;;;;;;;26.08;13.30;;;1.60;99.90;;;;;;5052396;28;20111;-41
2020/12/29 05:39:09;;;;;;;27.58;14.10;;;1.60;99.90;;;;;;5049784;28;20032;-40
2020/12/29 05:41:42;;;;;;;24.35;13.45;;;1.60;99.90;;;;;;5062249;28;20083;-41
2020/12/29 05:44:09;;;;;;;22.38;12.57;;;1.70;99.90;;;;;;5062368;28;20021;-42
2020/12/29 05:46:36;;;;;;;24.77;12.55;;;1.70;99.90;;;;;;5055270;28;20021;-41
2020/12/29 05:49:03;;;;;;;20.35;12.15;;;1.70;99.90;;;;;;5058534;28;20025;-40
2020/12/29 05:51:29;;;;;;;21.23;11.70;;;1.70;99.90;;;;;;5060476;28;20390;-41
2020/12/29 05:54:04;;;;;;;21.00;11.82;;;1.70;99.90;;;;;;5057038;28;20017;-42
2020/12/29 05:56:32;;;;;;;19.25;11.75;;;1.70;99.90;;;;;;5060808;28;20032;-42
2020/12/29 05:59:00;;;;;;;21.27;12.38;;;1.60;99.90;;;;;;5066393;28;20082;-41
2020/12/29 06:01:36;;;;;;;21.20;11.45;;;1.60;99.90;;;;;;5059273;28;20148;-41
2020/12/29 06:04:04;;;;;;;21.25;12.10;;;1.60;99.90;;;;;;5067735;28;20027;-41
2020/12/29 06:06:32;;;;;;;18.75;10.48;;;1.60;99.90;;;;;;5068401;28;22281;-44
2020/12/29 06:09:02;;;;;;;21.92;10.82;;;1.60;99.90;;;;;;5069439;28;20066;-40
2020/12/29 06:11:36;;;;;;;17.63;10.75;;;1.60;99.90;;;;;;5064959;28;20033;-40
2020/12/29 06:14:09;;;;;;;16.48;9.20;;;1.60;99.90;;;;;;5047670;28;20470;-41
2020/12/29 06:16:38;;;;;;;15.40;9.30;;;1.60;99.90;;;;;;5053334;28;20070;-41
2020/12/29 06:19:20;;;;;;;16.65;9.68;;;1.70;99.90;;;;;;5067394;28;20052;-40
2020/12/29 06:22:12;;;;;;;18.25;9.45;;;1.70;99.90;;;;;;5065926;28;20407;-41
2020/12/29 06:24:45;;;;;;;18.95;9.93;;;1.60;99.90;;;;;;5047982;28;20033;-40
2020/12/29 06:27:12;;;;;;;15.07;9.50;;;1.60;99.90;;;;;;5064929;28;20025;-40
2020/12/29 06:29:40;;;;;;;18.42;9.73;;;1.60;99.90;;;;;;5060113;28;20017;-40
2020/12/29 06:32:16;;;;;;;22.42;10.07;;;1.60;99.90;;;;;;5048235;28;20025;-40
2020/12/29 06:34:44;;;;;;;19.02;9.93;;;1.60;99.90;;;;;;5051638;28;20542;-40
2020/12/29 06:37:22;;;;;;;22.50;9.82;;;1.60;99.90;;;;;;5048635;28;20029;-40
2020/12/29 06:39:52;;;;;;;16.40;9.38;;;1.60;99.90;;;;;;5056587;28;20107;-47
2020/12/29 06:42:19;;;;;;;19.30;10.48;;;1.60;99.90;;;;;;5057603;28;20103;-49
2020/12/29 06:44:52;;;;;;;21.88;10.23;;;1.60;99.90;;;;;;5055441;28;20103;-50
2020/12/29 06:47:20;;;;;;;17.40;9.63;;;1.50;99.90;;;;;;5056974;28;20031;-51
2020/12/29 06:49:46;;;;;;;17.83;9.43;;;1.50;99.90;;;;;;5056065;28;20033;-47
2020/12/29 06:52:24;;;;;;;16.52;9.27;;;1.50;99.90;;;;;;5056441;28;20028;-51
2020/12/29 06:55:02;;;;;;;17.33;10.10;;;1.50;99.90;;;;;;5046161;28;20269;-46
2020/12/29 06:57:37;;;;;;;15.88;9.38;;;1.60;99.90;;;;;;5053465;28;20021;-47
2020/12/29 07:00:09;;;;;;;23.55;11.32;;;1.60;99.90;;;;;;5052847;28;20029;-43
2020/12/29 07:02:37;;;;;;;22.05;10.95;;;1.70;99.90;;;;;;5047629;28;20659;-41
2020/12/29 07:05:13;;;;;;;19.88;11.43;;;1.70;99.90;;;;;;5045785;28;20161;-41
2020/12/29 07:08:00;;;;;;;19.27;10.32;;;1.70;99.90;;;;;;5048041;28;20021;-42
2020/12/29 07:10:32;;;;;;;15.52;8.82;;;1.70;99.90;;;;;;5048350;28;20017;-42
2020/12/29 07:13:16;;;;;;;17.65;9.43;;;1.50;99.90;;;;;;5059995;28;20103;-42
2020/12/29 07:15:50;;;;;;;20.45;10.80;;;1.60;99.90;;;;;;5048373;28;20454;-45
2020/12/29 07:18:24;;;;;;;13.77;8.35;;;1.60;99.90;;;;;;5044345;28;20017;-42
2020/12/29 07:20:52;;;;;;;14.30;8.88;;;1.60;99.90;;;;;;5046297;28;20099;-42
2020/12/29 07:23:20;;;;;;;17.30;9.05;;;1.60;99.90;;;;;;5045435;28;20029;-42
2020/12/29 07:25:51;;;;;;;17.90;9.30;;;1.70;99.90;;;;;;5045146;28;20111;-41
2020/12/29 07:28:24;;;;;;;15.88;9.10;;;1.70;99.90;;;;;;5057923;28;20068;-39
2020/12/29 07:30:53;;;;;;;14.85;9.10;;;1.70;99.90;;;;;;5056129;28;20036;-41
2020/12/29 07:33:25;;;;;;;17.15;8.20;;;1.70;99.90;;;;;;5059472;28;20066;-42
2020/12/29 07:35:52;;;;;;;15.48;9.15;;;1.70;99.90;;;;;;5054206;28;20537;-42
2020/12/29 07:38:24;;;;;;;15.35;9.02;;;1.70;99.90;;;;;;5057643;28;20024;-42
2020/12/29 07:40:50;;;;;;;17.88;8.95;;;1.70;99.90;;;;;;5058962;28;20013;-42
2020/12/29 07:43:16;;;;;;;17.17;8.85;;;1.70;99.90;;;;;;5058313;28;20031;-42
2020/12/29 07:45:42;;;;;;;16.35;9.25;;;1.80;99.90;;;;;;5055302;28;20215;-43
2020/12/29 07:48:08;;;;;;;13.30;8.38;;;1.90;99.90;;;;;;5055265;28;20035;-41
2020/12/29 07:50:36;;;;;;;16.30;9.10;;;1.90;99.90;;;;;;5062685;28;20036;-41
2020/12/29 07:53:12;;;;;;;17.15;8.27;;;2.00;99.90;;;;;;5058171;28;20021;-41
2020/12/29 07:55:45;;;;;;;16.45;9.07;;;1.90;99.90;;;;;;5063988;28;20040;-41
2020/12/29 07:58:10;;;;;;;11.80;7.53;;;1.90;99.90;;;;;;5065745;28;20483;-40
2020/12/29 08:00:38;;;;;;;13.55;8.43;;;1.90;99.90;;;;;;5067647;28;20099;-41
2020/12/29 08:03:04;;;;;;;14.20;8.07;;;1.90;99.90;;;;;;5062035;28;20040;-41
2020/12/29 08:05:33;;;;;;;12.65;8.15;;;1.90;99.90;;;;;;5066041;28;20512;-41
2020/12/29 08:08:05;;;;;;;15.40;8.65;;;1.90;99.90;;;;;;5066072;28;20021;-42
2020/12/29 08:10:33;;;;;;;13.07;8.35;;;1.90;99.90;;;;;;5068057;28;20069;-41
2020/12/29 08:13:02;;;;;;;13.68;8.25;;;1.90;99.90;;;;;;5063571;28;20278;-40
2020/12/29 08:15:30;;;;;;;13.63;7.47;;;1.90;99.90;;;;;;5061142;28;20031;-41
2020/12/29 08:18:14;;;;;;;14.48;7.15;;;1.90;99.90;;;;;;5067095;28;20035;-41
2020/12/29 08:20:45;;;;;;;12.38;7.75;;;1.90;99.90;;;;;;5060558;28;20029;-41
2020/12/29 08:23:12;;;;;;;11.70;7.13;;;1.90;99.90;;;;;;5061780;28;20028;-42
2020/12/29 08:25:38;;;;;;;14.80;8.10;;;1.90;99.90;;;;;;5052581;28;20406;-42
2020/12/29 08:28:05;;;;;;;11.15;7.28;;;2.00;99.90;;;;;;5067416;28;20043;-41
2020/12/29 08:30:33;;;;;;;10.50;6.90;;;1.90;99.90;;;;;;5065669;28;20058;-41
2020/12/29 08:33:04;;;;;;;14.60;7.68;;;2.00;99.90;;;;;;5067255;28;20573;-41
2020/12/29 08:35:33;;;;;;;11.35;7.53;;;2.00;99.90;;;;;;5051938;28;20094;-42
2020/12/29 08:38:31;;;;;;;11.20;7.50;;;2.00;99.90;;;;;;5044947;28;20514;-41
2020/12/29 08:41:09;;;;;;;12.00;7.32;;;2.10;99.90;;;;;;5064490;28;20105;-42
2020/12/29 08:43:49;;;;;;;10.35;6.97;;;2.10;99.90;;;;;;5071337;28;20387;-42
2020/12/29 08:46:17;;;;;;;16.40;7.88;;;2.10;99.90;;;;;;5061684;28;20024;-42
2020/12/29 08:49:00;;;;;;;15.45;7.20;;;2.10;99.90;;;;;;5064202;28;20044;-43
2020/12/29 08:51:28;;;;;;;10.13;6.38;;;2.10;99.90;;;;;;5058120;28;20439;-42
2020/12/29 08:54:07;;;;;;;10.82;6.88;;;2.10;99.90;;;;;;5063303;28;20052;-43
2020/12/29 08:56:33;;;;;;;12.60;6.93;;;2.10;99.90;;;;;;5060705;28;20027;-43
2020/12/29 08:59:11;;;;;;;10.75;6.65;;;2.10;99.90;;;;;;5070418;28;20054;-45
2020/12/29 09:01:45;;;;;;;11.70;6.50;;;2.10;99.90;;;;;;5059858;28;20052;-43
2020/12/29 09:04:42;;;;;;;11.30;6.68;;;2.10;99.90;;;;;;5056884;28;20028;-43
2020/12/29 09:07:12;;;;;;;11.25;6.32;;;2.10;99.90;;;;;;5051736;28;20037;-42
2020/12/29 09:10:03;;;;;;;9.93;6.32;;;2.10;99.90;;;;;;5056056;28;20021;-45
2020/12/29 09:12:30;;;;;;;;;;;2.10;99.90;;;;;;5062008;28;20505;-45
2020/12/29 09:15:04;;;;;;;12.45;7.22;;;2.20;99.90;;;;;;5062039;28;19909;-45
2020/12/29 09:17:33;;;;;;;10.50;6.78;;;2.30;99.90;;;;;;5054852;28;20032;-44
2020/12/29 09:20:19;;;;;;;11.25;6.38;;;2.30;99.90;;;;;;5061743;28;20029;-43
2020/12/29 09:22:56;;;;;;;12.60;6.95;;;2.30;99.90;;;;;;5067921;28;20016;-43
2020/12/29 09:25:39;;;;;;;11.07;6.80;;;2.30;99.90;;;;;;5063828;28;20458;-43
2020/12/29 09:28:14;;;;;;;9.55;6.18;;;2.40;99.90;;;;;;5065743;28;20021;-44
2020/12/29 09:30:42;;;;;;;10.48;6.40;;;2.40;99.90;;;;;;5058370;28;20020;-45
2020/12/29 09:33:09;;;;;;;10.15;6.28;;;2.40;99.90;;;;;;5056801;28;20036;-45
2020/12/29 09:35:34;;;;;;;11.05;6.65;;;2.40;99.90;;;;;;5057692;28;20033;-43
2020/12/29 09:38:02;;;;;;;11.45;6.93;;;2.40;99.90;;;;;;5063360;28;20393;-46
2020/12/29 09:40:29;;;;;;;13.40;6.97;;;2.50;99.90;;;;;;5048419;28;20028;-44
2020/12/29 09:42:58;;;;;;;11.48;6.20;;;2.50;99.90;;;;;;5063919;28;20032;-45
2020/12/29 09:45:25;;;;;;;15.07;7.28;;;2.70;99.90;;;;;;5048051;28;20025;-44
2020/12/29 09:47:52;;;;;;;9.02;5.93;;;2.80;99.90;;;;;;5063739;28;20591;-42
2020/12/29 09:50:22;;;;;;;12.45;5.72;;;2.90;99.90;;;;;;5067740;28;20426;-43
2020/12/29 09:52:53;;;;;;;10.77;5.95;;;3.00;99.90;;;;;;5050654;28;20032;-44
2020/12/29 09:55:18;;;;;;;9.55;5.88;;;3.20;99.90;;;;;;5071397;28;20108;-45
2020/12/29 09:57:44;;;;;;;9.63;6.00;;;3.30;99.90;;;;;;5050956;28;20299;-43
2020/12/29 10:00:16;;;;;;;10.40;6.22;;;3.30;99.90;;;;;;5044347;28;20060;-45
2020/12/29 10:02:41;;;;;;;8.93;6.53;;;3.30;99.90;;;;;;5047528;28;20473;-45
2020/12/29 10:05:07;;;;;;;12.02;6.80;;;3.40;99.90;;;;;;5048333;28;20494;-43
2020/12/29 10:07:32;;;;;;;12.05;6.45;;;3.50;99.90;;;;;;5064470;28;20035;-43
2020/12/29 10:09:58;;;;;;;7.63;5.95;;;3.50;99.90;;;;;;5064596;28;20123;-49
2020/12/29 10:12:33;;;;;;;12.52;6.90;;;3.50;99.90;;;;;;5057161;28;20545;-41
2020/12/29 10:15:00;;;;;;;9.45;6.07;;;3.50;99.90;;;;;;5061245;28;20029;-41
2020/12/29 10:17:28;;;;;;;10.57;7.07;;;3.50;99.90;;;;;;5063340;28;20432;-41
2020/12/29 10:19:56;;;;;;;8.95;6.03;;;3.50;99.90;;;;;;5066168;28;20024;-42
2020/12/29 10:22:22;;;;;;;10.38;6.80;;;3.60;99.90;;;;;;5059064;28;20028;-41
2020/12/29 10:24:48;;;;;;;8.45;6.07;;;3.60;99.90;;;;;;5057227;28;20079;-42
2020/12/29 10:27:13;;;;;;;9.68;6.63;;;3.70;99.90;;;;;;5062213;28;20029;-41
2020/12/29 10:29:45;;;;;;;10.38;6.28;;;3.80;99.90;;;;;;5067446;28;20478;-41
2020/12/29 10:32:10;;;;;;;11.02;7.20;;;3.80;99.90;;;;;;5067244;28;20052;-41
2020/12/29 10:34:36;;;;;;;9.98;5.88;;;3.80;99.90;;;;;;5061461;28;20028;-41
2020/12/29 10:37:01;;;;;;;7.30;5.40;;;3.90;99.90;;;;;;5049877;28;20480;-41
2020/12/29 10:39:28;;;;;;;8.82;5.75;;;4.00;99.90;;;;;;5056107;28;20017;-40
2020/12/29 10:41:53;;;;;;;10.25;5.95;;;4.10;99.90;;;;;;5065219;28;20020;-40
2020/12/29 10:44:19;;;;;;;10.75;6.75;;;4.10;99.90;;;;;;5052370;28;20025;-40
2020/12/29 10:46:46;;;;;;;9.00;6.13;;;4.10;99.90;;;;;;5047829;28;20083;-42
2020/12/29 10:49:15;;;;;;;9.27;6.20;;;4.20;99.90;;;;;;5047603;28;20482;-41
2020/12/29 10:51:41;;;;;;;11.45;6.80;;;4.30;99.90;;;;;;5067692;28;20111;-41
2020/12/29 10:54:07;;;;;;;13.13;6.05;;;4.20;99.90;;;;;;5067653;28;20119;-41
2020/12/29 10:56:32;;;;;;;8.70;5.72;;;4.30;99.90;;;;;;5056001;28;20040;-44
2020/12/29 10:58:58;;;;;;;12.88;6.85;;;4.40;99.90;;;;;;5058959;28;20394;-40
2020/12/29 11:01:24;;;;;;;10.52;6.60;;;4.30;99.90;;;;;;5047015;28;20040;-41
2020/12/29 11:03:51;;;;;;;9.52;6.30;;;4.30;99.90;;;;;;5046341;28;20048;-42
2020/12/29 11:06:21;;;;;;;12.02;6.93;;;4.40;99.90;;;;;;5059085;28;20277;-43
2020/12/29 11:08:51;;;;;;;10.65;7.07;;;4.40;99.90;;;;;;5062657;28;20115;-41
2020/12/29 11:11:18;;;;;;;12.95;7.18;;;4.50;99.90;;;;;;5067215;28;20104;-42
2020/12/29 11:13:44;;;;;;;13.18;6.45;;;4.50;99.90;;;;;;5067611;28;20146;-41
2020/12/29 11:16:18;;;;;;;11.57;6.55;;;4.60;99.90;;;;;;5064853;28;20025;-43
2020/12/29 11:18:44;;;;;;;11.27;6.78;;;4.50;99.90;;;;;;5061347;28;20316;-40
2020/12/29 11:21:10;;;;;;;12.00;7.15;;;4.50;99.90;;;;;;5064870;28;20031;-42
2020/12/29 11:23:36;;;;;;;19.15;8.38;;;4.60;99.90;;;;;;5067289;28;20020;-42
2020/12/29 11:26:03;;;;;;;11.05;7.15;;;4.60;99.90;;;;;;5065067;28;20009;-41
2020/12/29 11:28:28;;;;;;;9.57;7.10;;;4.60;99.90;;;;;;5064117;28;20470;-42
2020/12/29 11:30:54;;;;;;;11.52;7.78;;;4.60;99.90;;;;;;5052105;28;20052;-41
2020/12/29 11:33:20;;;;;;;10.75;7.30;;;4.50;99.90;;;;;;5047803;28;20397;-43
2020/12/29 11:35:47;;;;;;;10.77;7.53;;;4.50;99.90;;;;;;5050959;28;20036;-41
2020/12/29 11:38:14;;;;;;;13.27;8.05;;;4.60;99.90;;;;;;5055825;28;20466;-42
2020/12/29 11:40:40;;;;;;;12.75;7.85;;;4.50;99.90;;;;;;5063433;28;20370;-42
2020/12/29 11:43:06;;;;;;;12.20;7.97;;;4.50;99.90;;;;;;5067015;28;20111;-42
2020/12/29 11:45:31;;;;;;;11.35;7.70;;;4.50;99.90;;;;;;5059028;28;20024;-40
2020/12/29 11:47:57;;;;;;;10.23;7.53;;;4.60;99.90;;;;;;5066323;28;20024;-41
2020/12/29 11:50:23;;;;;;;13.43;7.75;;;4.70;99.90;;;;;;5064359;28;20082;-42
2020/12/29 11:52:49;;;;;;;11.38;7.63;;;4.70;99.90;;;;;;5054335;28;20524;-42
2020/12/29 11:55:15;;;;;;;10.23;7.15;;;4.80;99.90;;;;;;5053981;28;20060;-42
2020/12/29 11:57:41;;;;;;;11.73;8.52;;;4.80;99.90;;;;;;5059006;28;20060;-42
2020/12/29 12:00:07;;;;;;;9.90;7.53;;;4.80;99.90;;;;;;5051378;28;20061;-42
2020/12/29 12:02:33;;;;;;;12.25;8.27;;;4.90;99.90;;;;;;5053914;28;20040;-43
2020/12/29 12:04:59;;;;;;;12.32;8.07;;;4.80;99.90;;;;;;5048185;28;20025;-41
2020/12/29 12:07:25;;;;;;;13.13;8.95;;;4.90;99.90;;;;;;5052505;28;20440;-40
2020/12/29 12:09:51;;;;;;;13.77;8.82;;;5.00;99.90;;;;;;5054745;28;20096;-43
2020/12/29 12:12:17;;;;;;;11.05;8.30;;;5.00;99.90;;;;;;5054780;28;20025;-42
2020/12/29 12:14:43;;;;;;;13.70;7.75;;;5.20;99.90;;;;;;5047949;28;20032;-42
2020/12/29 12:17:08;;;;;;;11.93;7.88;;;5.30;99.90;;;;;;5050621;28;20040;-42
2020/12/29 12:19:34;;;;;;;11.05;7.70;;;5.40;99.90;;;;;;5051354;28;20556;-41
2020/12/29 12:22:01;;;;;;;13.50;8.27;;;5.40;99.90;;;;;;5066354;28;20115;-44
2020/12/29 12:24:27;;;;;;;13.75;8.18;;;5.50;99.90;;;;;;5064730;28;20039;-40
2020/12/29 12:26:52;;;;;;;10.85;7.90;;;5.60;99.90;;;;;;5058428;28;20024;-42
2020/12/29 12:29:18;;;;;;;12.95;7.97;;;5.50;99.90;;;;;;5062865;28;20176;-42
2020/12/29 12:31:43;;;;;;;11.23;8.77;;;5.60;99.90;;;;;;5068181;28;20024;-40
2020/12/29 12:34:09;;;;;;;13.38;8.35;;;5.60;99.90;;;;;;5067582;28;20095;-42
2020/12/29 12:36:35;;;;;;;15.43;9.55;;;5.50;99.90;;;;;;5068157;28;20078;-42
2020/12/29 12:39:01;;;;;;;12.35;8.55;;;5.50;99.90;;;;;;5068190;28;20098;-43
2020/12/29 12:41:26;;;;;;;12.65;8.70;;;5.50;99.90;;;;;;5061935;28;20097;-42
2020/12/29 12:43:52;;;;;;;12.60;8.57;;;5.70;99.90;;;;;;5078374;28;20028;-40
2020/12/29 12:46:17;;;;;;;11.60;8.55;;;5.50;99.90;;;;;;5066821;28;20043;-41
2020/12/29 12:48:43;;;;;;;12.57;8.93;;;5.60;99.90;;;;;;5066776;28;20118;-45